createdAt,value
2023-04-30T00:00:20.670Z,81.5758
2023-04-30T00:01:21.062Z,81.3180
2023-04-30T00:02:23.099Z,81.6869
2023-04-30T00:03:31.326Z,81.3268
2023-04-30T00:04:32.160Z,82.1096
2023-04-30T00:05:33.135Z,81.8608
2023-04-30T00:06:33.809Z,82.1421
2023-04-30T00:07:34.672Z,81.7192
2023-04-30T00:08:37.104Z,82.0521
2023-04-30T00:09:36.517Z,82.0020
2023-04-30T00:10:37.077Z,81.8909
2023-04-30T00:11:37.646Z,82.2235
2023-04-30T00:12:37.934Z,82.3948
2023-04-30T00:13:38.439Z,82.8148
2023-04-30T00:14:39.051Z,82.6871
2023-04-30T00:15:39.449Z,82.4757
2023-04-30T00:16:40.135Z,82.5178
2023-04-30T00:17:40.743Z,82.8060
2023-04-30T00:18:41.577Z,82.7968
2023-04-30T00:19:42.067Z,82.8042
2023-04-30T00:20:42.539Z,82.9293
2023-04-30T00:21:43.074Z,82.8264
2023-04-30T00:22:43.640Z,82.8358
2023-04-30T00:23:44.335Z,83.1198
2023-04-30T00:24:44.832Z,83.4181
2023-04-30T00:25:45.230Z,83.5023
2023-04-30T00:26:45.742Z,83.9474
2023-04-30T00:27:46.251Z,83.6853
2023-04-30T00:28:46.664Z,83.7917
2023-04-30T00:29:47.878Z,83.7742
2023-04-30T00:30:48.843Z,83.8028
2023-04-30T00:31:49.975Z,83.9975
2023-04-30T00:32:51.146Z,83.6652
2023-04-30T00:33:51.773Z,83.8110
2023-04-30T00:34:52.434Z,84.0978
2023-04-30T00:35:55.733Z,84.1493
2023-04-30T00:37:54.616Z,84.1753
2023-04-30T00:38:55.258Z,84.7113
2023-04-30T00:39:55.829Z,84.8425
2023-04-30T00:40:56.266Z,85.1939
2023-04-30T00:41:56.876Z,84.8802
2023-04-30T00:42:57.253Z,85.0075
2023-04-30T00:43:57.864Z,84.8226
2023-04-30T00:44:59.155Z,85.0317
2023-04-30T00:46:01.310Z,85.0197
2023-04-30T00:47:03.063Z,85.1065
2023-04-30T00:48:04.656Z,85.2832
2023-04-30T00:49:04.937Z,85.6631
2023-04-30T00:50:05.393Z,85.6213
2023-04-30T00:51:06.665Z,85.7233
2023-04-30T00:52:07.002Z,85.5298
2023-04-30T00:53:08.178Z,85.1851
2023-04-30T00:54:09.801Z,85.2408
2023-04-30T00:56:10.930Z,85.5632
2023-04-30T00:57:11.278Z,85.8926
2023-04-30T00:58:12.964Z,85.7404
2023-04-30T01:00:13.936Z,86.1506
2023-04-30T01:01:14.309Z,86.3650
2023-04-30T01:02:15.626Z,86.5699
2023-04-30T01:06:19.466Z,86.3835
2023-04-30T01:08:20.378Z,85.8752
2023-04-30T01:09:20.477Z,85.9876
2023-04-30T01:11:21.382Z,86.1325
2023-04-30T01:12:21.528Z,86.2678
2023-04-30T01:13:21.965Z,86.4941
2023-04-30T01:14:23.966Z,85.9920
2023-04-30T01:21:32.355Z,85.4801
2023-04-30T01:22:34.410Z,85.4254
2023-04-30T01:23:36.173Z,85.4320
2023-04-30T01:24:36.190Z,85.4678
2023-04-30T01:25:37.518Z,85.7770
2023-04-30T01:30:44.009Z,85.9625
2023-04-30T01:31:45.865Z,85.2668
2023-04-30T01:32:46.810Z,85.4841
2023-04-30T01:33:47.628Z,85.6522
2023-04-30T01:34:49.058Z,85.5112
2023-04-30T01:35:49.427Z,85.6365
2023-04-30T01:36:49.661Z,85.7630
2023-04-30T01:37:51.590Z,85.7285
2023-04-30T01:38:53.700Z,85.9241
2023-04-30T01:39:55.480Z,85.9469
2023-04-30T01:40:56.500Z,85.5648
2023-04-30T01:41:58.491Z,85.9472
2023-04-30T01:46:00.958Z,85.3334
2023-04-30T01:47:01.614Z,85.3357
2023-04-30T01:48:02.032Z,85.5556
2023-04-30T01:49:02.010Z,85.2366
2023-04-30T01:50:03.041Z,85.1473
2023-04-30T01:51:04.790Z,85.2350
2023-04-30T01:52:06.193Z,85.1507
2023-04-30T01:53:06.769Z,85.2124
2023-04-30T01:54:07.374Z,84.8750
2023-04-30T01:55:08.575Z,85.2386
2023-04-30T01:57:10.834Z,85.5979
2023-04-30T01:58:11.165Z,85.1113
2023-04-30T02:01:13.907Z,85.5020
2023-04-30T02:02:14.199Z,85.5107
2023-04-30T02:03:15.578Z,85.4084
2023-04-30T02:04:15.953Z,85.2551
2023-04-30T02:05:16.452Z,85.6215
2023-04-30T02:06:16.782Z,85.7345
2023-04-30T02:07:17.623Z,85.5570
2023-04-30T02:08:18.123Z,85.7739
2023-04-30T02:09:18.610Z,85.5764
2023-04-30T02:10:19.530Z,85.9620
2023-04-30T02:11:20.001Z,85.9031
2023-04-30T02:12:20.568Z,86.2553
2023-04-30T02:13:21.333Z,86.1931
2023-04-30T02:14:22.590Z,86.1190
2023-04-30T02:15:23.172Z,86.1994
2023-04-30T02:16:24.090Z,86.2322
2023-04-30T02:17:24.661Z,86.1178
2023-04-30T02:18:25.868Z,86.3680
2023-04-30T02:19:26.436Z,85.9768
2023-04-30T02:20:26.881Z,86.0945
2023-04-30T02:21:27.019Z,86.2559
2023-04-30T02:22:28.643Z,86.0278
2023-04-30T02:24:29.554Z,86.1044
2023-04-30T02:25:29.594Z,86.3840
2023-04-30T02:26:30.322Z,86.2125
2023-04-30T02:27:30.871Z,86.2672
2023-04-30T02:28:31.640Z,86.2532
2023-04-30T02:29:32.873Z,85.8535
2023-04-30T02:30:33.522Z,86.0271
2023-04-30T02:31:34.334Z,86.1688
2023-04-30T02:32:35.398Z,85.8653
2023-04-30T02:33:35.997Z,86.2313
2023-04-30T02:34:36.519Z,85.7642
2023-04-30T02:35:37.168Z,85.9524
2023-04-30T02:36:37.464Z,86.1884
2023-04-30T02:37:38.035Z,86.0864
2023-04-30T02:38:38.352Z,85.9170
2023-04-30T02:39:38.945Z,85.9287
2023-04-30T02:40:39.196Z,85.4311
2023-04-30T02:41:39.566Z,85.7311
2023-04-30T02:42:40.195Z,85.9415
2023-04-30T02:43:40.687Z,85.9877
2023-04-30T02:44:41.039Z,86.2491
2023-04-30T02:45:41.772Z,85.9919
2023-04-30T02:46:42.650Z,86.1477
2023-04-30T02:47:43.331Z,86.1931
2023-04-30T02:48:43.982Z,86.1240
2023-04-30T02:49:44.428Z,86.3742
2023-04-30T02:50:45.645Z,85.9104
2023-04-30T02:51:46.366Z,85.8803
2023-04-30T02:52:46.682Z,85.7671
2023-04-30T02:53:47.233Z,86.0252
2023-04-30T02:54:47.800Z,86.3056
2023-04-30T02:55:48.284Z,86.1883
2023-04-30T02:56:48.892Z,86.3283
2023-04-30T02:57:49.355Z,86.5973
2023-04-30T02:58:49.882Z,86.4087
2023-04-30T02:59:50.462Z,86.1257
2023-04-30T03:00:50.892Z,86.2557
2023-04-30T03:01:51.984Z,86.0866
2023-04-30T03:02:53.083Z,86.0159
2023-04-30T03:03:54.160Z,85.4313
2023-04-30T03:04:54.718Z,86.0426
2023-04-30T03:05:55.466Z,86.5941
2023-04-30T03:06:56.072Z,86.2596
2023-04-30T03:07:56.659Z,86.3790
2023-04-30T03:08:57.274Z,85.7401
2023-04-30T03:09:57.629Z,85.9144
2023-04-30T03:10:58.125Z,85.6935
2023-04-30T03:11:58.596Z,85.9372
2023-04-30T03:12:59.166Z,85.7227
2023-04-30T03:13:59.719Z,85.5563
2023-04-30T03:15:00.148Z,85.7411
2023-04-30T03:16:00.798Z,85.9332
2023-04-30T03:17:01.552Z,85.4477
2023-04-30T03:18:01.634Z,85.1800
2023-04-30T03:19:02.204Z,85.1965
2023-04-30T03:20:03.087Z,85.4677
2023-04-30T03:21:03.716Z,85.3206
2023-04-30T03:22:04.277Z,85.6564
2023-04-30T03:23:04.647Z,85.3953
2023-04-30T03:24:05.248Z,85.3364
2023-04-30T03:25:05.689Z,85.2895
2023-04-30T03:26:06.164Z,85.7955
2023-04-30T03:27:06.921Z,85.8748
2023-04-30T03:28:07.810Z,85.9347
2023-04-30T03:29:08.464Z,85.5548
2023-04-30T03:30:09.582Z,85.4764
2023-04-30T03:31:10.137Z,84.8984
2023-04-30T03:32:11.060Z,85.3270
2023-04-30T03:33:12.025Z,85.3811
2023-04-30T03:34:12.881Z,84.9733
2023-04-30T03:35:13.386Z,85.0036
2023-04-30T03:36:13.871Z,85.0033
2023-04-30T03:37:14.421Z,85.0860
2023-04-30T03:38:15.075Z,85.0748
2023-04-30T03:39:15.542Z,85.3442
2023-04-30T03:40:16.170Z,84.8389
2023-04-30T03:41:16.754Z,85.3297
2023-04-30T03:42:17.241Z,84.8880
2023-04-30T03:43:17.424Z,85.0531
2023-04-30T03:44:18.160Z,85.2348
2023-04-30T03:45:18.521Z,85.6726
2023-04-30T03:46:18.555Z,85.2632
2023-04-30T03:47:19.633Z,84.9787
2023-04-30T03:48:20.743Z,84.3192
2023-04-30T03:49:21.311Z,84.7021
2023-04-30T03:50:21.697Z,84.8128
2023-04-30T03:51:22.240Z,85.0331
2023-04-30T03:52:23.074Z,85.1090
2023-04-30T03:53:23.500Z,85.2962
2023-04-30T03:54:24.043Z,85.3969
2023-04-30T03:55:24.587Z,85.5231
2023-04-30T03:56:25.031Z,85.5367
2023-04-30T03:57:25.703Z,85.2816
2023-04-30T03:58:26.038Z,85.4264
2023-04-30T03:59:26.605Z,85.8017
2023-04-30T04:00:27.568Z,85.9653
2023-04-30T04:01:28.035Z,85.3657
2023-04-30T04:02:29.283Z,84.9721
2023-04-30T04:03:30.225Z,85.1393
2023-04-30T04:04:31.340Z,85.1198
2023-04-30T04:05:31.864Z,85.1115
2023-04-30T04:06:33.068Z,85.6831
2023-04-30T04:07:33.545Z,85.5134
2023-04-30T04:08:34.081Z,85.2743
2023-04-30T04:09:34.637Z,85.6609
2023-04-30T04:10:35.087Z,85.6232
2023-04-30T04:11:35.731Z,85.4751
2023-04-30T04:12:36.256Z,85.1155
2023-04-30T04:13:36.827Z,84.9270
2023-04-30T04:14:37.399Z,85.2461
2023-04-30T04:15:37.845Z,85.7209
2023-04-30T04:16:39.164Z,85.4220
2023-04-30T04:17:40.072Z,85.6126
2023-04-30T04:18:40.648Z,85.7550
2023-04-30T04:19:41.307Z,85.4431
2023-04-30T04:20:42.407Z,85.0278
2023-04-30T04:21:42.790Z,85.3736
2023-04-30T04:22:43.402Z,85.6957
2023-04-30T04:23:43.977Z,85.6497
2023-04-30T04:24:44.320Z,86.0731
2023-04-30T04:25:44.938Z,85.8858
2023-04-30T04:26:47.881Z,86.2673
2023-04-30T04:27:46.322Z,86.0226
2023-04-30T04:28:46.949Z,85.6044
2023-04-30T04:29:47.485Z,85.7971
2023-04-30T04:30:48.058Z,86.2852
2023-04-30T04:31:48.878Z,86.1640
2023-04-30T04:32:49.569Z,85.4898
2023-04-30T04:33:50.254Z,85.1599
2023-04-30T04:34:50.955Z,85.5382
2023-04-30T04:35:51.478Z,85.6860
2023-04-30T04:36:52.098Z,85.8162
2023-04-30T04:37:52.685Z,85.5130
2023-04-30T04:38:53.320Z,85.8750
2023-04-30T04:39:54.495Z,85.6244
2023-04-30T04:40:55.050Z,85.9665
2023-04-30T04:41:55.708Z,85.8902
2023-04-30T04:42:56.284Z,85.6111
2023-04-30T04:43:56.951Z,85.8258
2023-04-30T04:44:57.575Z,85.5978
2023-04-30T04:45:58.147Z,85.8509
2023-04-30T04:46:58.976Z,85.5579
2023-04-30T04:47:59.691Z,85.8193
2023-04-30T04:49:00.126Z,85.9876
2023-04-30T04:50:01.394Z,85.9164
2023-04-30T04:51:01.967Z,85.7486
2023-04-30T04:52:02.366Z,85.4133
2023-04-30T04:53:02.956Z,85.3920
2023-04-30T04:54:03.459Z,85.6997
2023-04-30T04:55:03.973Z,85.6757
2023-04-30T04:56:04.764Z,85.7101
2023-04-30T04:57:05.193Z,86.1310
2023-04-30T04:58:05.789Z,86.0811
2023-04-30T04:59:06.382Z,86.2067
2023-04-30T05:00:08.021Z,85.8724
2023-04-30T05:01:08.596Z,85.8861
2023-04-30T05:02:09.645Z,85.6589
2023-04-30T05:03:10.735Z,85.9852
2023-04-30T05:04:11.622Z,85.9313
2023-04-30T05:05:12.281Z,85.7241
2023-04-30T05:06:12.798Z,85.7046
2023-04-30T05:07:13.927Z,85.6557
2023-04-30T05:08:14.524Z,85.6467
2023-04-30T05:09:15.003Z,85.6127
2023-04-30T05:10:15.574Z,85.9556
2023-04-30T05:11:16.421Z,86.0854
2023-04-30T05:12:16.859Z,85.4015
2023-04-30T05:13:17.502Z,85.4828
2023-04-30T05:14:17.881Z,85.4179
2023-04-30T05:15:18.516Z,85.3149
2023-04-30T05:16:19.577Z,85.9172
2023-04-30T05:17:20.218Z,85.6058
2023-04-30T05:18:21.116Z,85.7123
2023-04-30T05:19:21.859Z,85.1857
2023-04-30T05:20:22.178Z,84.8483
2023-04-30T05:21:22.897Z,84.7853
2023-04-30T05:22:23.556Z,85.2852
2023-04-30T05:23:23.972Z,84.4172
2023-04-30T05:24:24.596Z,84.8548
2023-04-30T05:25:26.944Z,84.7054
2023-04-30T05:29:28.149Z,84.9477
2023-04-30T05:30:28.247Z,85.0475
2023-04-30T05:31:29.623Z,84.9281
2023-04-30T05:32:30.369Z,84.7491
2023-04-30T05:33:31.313Z,84.7642
2023-04-30T05:34:31.753Z,84.2992
2023-04-30T05:35:32.351Z,84.1991
2023-04-30T05:36:32.966Z,84.3099
2023-04-30T05:37:33.702Z,84.3672
2023-04-30T05:38:34.668Z,83.9923
2023-04-30T05:39:34.911Z,83.8009
2023-04-30T05:40:34.800Z,84.0038
2023-04-30T05:41:35.305Z,83.8049
2023-04-30T05:42:35.397Z,83.8770
2023-04-30T05:43:36.205Z,84.4339
2023-04-30T05:44:37.639Z,84.3475
2023-04-30T05:45:38.157Z,84.3189
2023-04-30T05:46:38.944Z,84.1701
2023-04-30T05:47:39.935Z,83.4402
2023-04-30T05:48:40.598Z,83.4169
2023-04-30T05:49:40.647Z,84.0608
2023-04-30T05:50:41.927Z,84.0115
2023-04-30T05:51:42.714Z,84.1485
2023-04-30T05:52:43.517Z,84.5314
2023-04-30T05:53:43.568Z,84.2819
2023-04-30T05:54:44.235Z,83.6795
2023-04-30T05:55:44.711Z,83.8312
2023-04-30T05:56:45.505Z,84.3388
2023-04-30T05:57:45.962Z,84.0653
2023-04-30T05:58:46.631Z,83.9946
2023-04-30T05:59:47.274Z,83.5493
2023-04-30T06:00:48.375Z,83.6721
2023-04-30T06:01:48.934Z,83.6137
2023-04-30T06:02:49.207Z,83.7192
2023-04-30T06:03:49.677Z,83.9178
2023-04-30T06:04:50.429Z,83.8045
2023-04-30T06:05:51.433Z,83.3278
2023-04-30T06:06:51.727Z,83.5279
2023-04-30T06:07:52.319Z,83.4795
2023-04-30T06:08:52.727Z,83.6233
2023-04-30T06:09:53.561Z,83.3441
2023-04-30T06:10:54.289Z,83.1322
2023-04-30T06:11:54.713Z,83.0583
2023-04-30T06:12:55.221Z,82.9259
2023-04-30T06:13:55.828Z,83.0121
2023-04-30T06:14:56.229Z,83.4574
2023-04-30T06:15:56.877Z,83.8307
2023-04-30T06:16:57.596Z,83.3951
2023-04-30T06:17:58.699Z,83.1559
2023-04-30T06:18:59.450Z,83.3296
2023-04-30T06:19:59.787Z,82.7686
2023-04-30T06:21:00.549Z,83.0678
2023-04-30T06:22:01.723Z,83.5577
2023-04-30T06:23:15.367Z,83.5936
2023-04-30T06:24:34.871Z,83.4284
2023-04-30T06:25:16.725Z,83.3499
2023-04-30T06:26:17.273Z,83.7179
2023-04-30T06:27:17.791Z,83.6395
2023-04-30T06:28:18.661Z,83.5951
2023-04-30T06:29:19.374Z,83.3958
2023-04-30T06:30:20.097Z,83.5289
2023-04-30T06:31:20.898Z,83.1961
2023-04-30T06:32:21.562Z,83.3683
2023-04-30T06:33:22.351Z,83.6764
2023-04-30T06:34:22.954Z,83.6454
2023-04-30T06:35:23.402Z,82.3727
2023-04-30T06:36:24.133Z,83.6201
2023-04-30T06:37:25.362Z,83.7783
2023-04-30T06:38:26.361Z,83.1303
2023-04-30T06:39:27.007Z,83.4349
2023-04-30T06:40:27.637Z,82.9548
2023-04-30T06:41:28.651Z,82.5883
2023-04-30T06:42:29.021Z,82.9472
2023-04-30T06:43:29.723Z,82.7535
2023-04-30T06:44:29.810Z,82.3732
2023-04-30T06:45:30.376Z,82.7148
2023-04-30T06:46:31.582Z,82.8111
2023-04-30T06:47:31.449Z,83.0584
2023-04-30T06:48:32.508Z,82.2865
2023-04-30T06:49:33.121Z,82.6492
2023-04-30T06:50:33.729Z,83.0390
2023-04-30T06:51:34.157Z,82.8161
2023-04-30T06:52:34.665Z,82.9262
2023-04-30T06:53:35.212Z,82.7818
2023-04-30T06:54:35.568Z,82.5091
2023-04-30T06:55:36.164Z,82.2313
2023-04-30T06:56:37.086Z,82.3641
2023-04-30T06:57:37.672Z,82.1857
2023-04-30T06:58:38.216Z,82.4623
2023-04-30T06:59:38.682Z,82.6338
2023-04-30T07:00:39.217Z,82.8334
2023-04-30T07:01:39.939Z,82.3036
2023-04-30T07:02:40.172Z,82.0383
2023-04-30T07:03:41.003Z,82.3991
2023-04-30T07:04:42.224Z,81.9020
2023-04-30T07:05:42.662Z,82.0485
2023-04-30T07:06:43.646Z,82.4644
2023-04-30T07:07:44.123Z,82.5986
2023-04-30T07:08:45.728Z,82.3884
2023-04-30T07:09:46.304Z,81.7224
2023-04-30T07:10:46.834Z,81.6087
2023-04-30T07:11:47.446Z,81.4218
2023-04-30T07:12:48.030Z,81.3497
2023-04-30T07:13:48.434Z,81.3999
2023-04-30T07:14:49.098Z,82.0061
2023-04-30T07:15:49.551Z,81.6937
2023-04-30T07:16:50.279Z,81.7237
2023-04-30T07:17:50.892Z,81.3402
2023-04-30T07:18:51.481Z,80.8717
2023-04-30T07:19:52.300Z,81.2464
2023-04-30T07:20:53.561Z,81.0433
2023-04-30T07:21:54.638Z,81.1015
2023-04-30T07:22:55.229Z,80.6917
2023-04-30T07:23:55.564Z,79.9789
2023-04-30T07:24:56.038Z,80.0977
2023-04-30T07:25:56.671Z,79.4672
2023-04-30T07:26:57.104Z,79.0254
2023-04-30T07:27:57.664Z,78.6452
2023-04-30T07:28:58.216Z,79.3317
2023-04-30T07:29:58.694Z,79.2001
2023-04-30T07:30:59.078Z,79.9163
2023-04-30T07:31:59.704Z,79.0443
2023-04-30T07:33:00.536Z,79.0046
2023-04-30T07:34:01.280Z,78.7950
2023-04-30T07:35:01.641Z,78.5383
2023-04-30T07:36:02.183Z,79.4484
2023-04-30T07:37:02.765Z,79.1136
2023-04-30T07:38:03.341Z,79.6507
2023-04-30T07:39:03.851Z,79.2989
2023-04-30T07:40:04.809Z,79.2922
2023-04-30T07:41:05.186Z,79.1575
2023-04-30T07:42:05.815Z,79.3016
2023-04-30T07:43:06.290Z,80.0620
2023-04-30T07:44:06.876Z,79.8044
2023-04-30T07:45:07.446Z,79.8712
2023-04-30T07:46:07.983Z,79.1824
2023-04-30T07:47:09.005Z,79.4094
2023-04-30T07:48:09.921Z,79.7647
2023-04-30T07:49:10.841Z,78.9672
2023-04-30T07:50:11.420Z,79.0696
2023-04-30T07:51:12.096Z,78.9504
2023-04-30T07:52:12.843Z,78.4592
2023-04-30T07:53:13.479Z,78.8687
2023-04-30T07:54:14.364Z,78.5742
2023-04-30T07:55:14.929Z,78.0780
2023-04-30T07:56:15.510Z,78.2302
2023-04-30T07:57:15.994Z,77.9282
2023-04-30T07:58:16.521Z,77.8404
2023-04-30T07:59:17.077Z,77.2587
2023-04-30T08:00:17.767Z,77.8978
2023-04-30T08:01:18.460Z,77.5675
2023-04-30T08:02:19.229Z,78.2023
2023-04-30T08:03:20.226Z,77.8534
2023-04-30T08:04:20.530Z,77.7068
2023-04-30T08:05:21.431Z,77.2954
2023-04-30T08:06:22.115Z,77.0204
2023-04-30T08:07:22.847Z,76.5399
2023-04-30T08:08:23.422Z,76.5103
2023-04-30T08:09:24.337Z,77.3243
2023-04-30T08:10:25.210Z,77.7039
2023-04-30T08:11:25.802Z,77.8163
2023-04-30T08:12:26.378Z,77.1041
2023-04-30T08:13:26.812Z,76.7079
2023-04-30T08:14:27.398Z,76.7841
2023-04-30T08:15:28.863Z,77.5567
2023-04-30T08:16:28.733Z,76.5705
2023-04-30T08:17:29.907Z,76.9664
2023-04-30T08:18:30.532Z,76.1978
2023-04-30T08:19:31.190Z,76.2218
2023-04-30T08:20:32.170Z,76.2122
2023-04-30T08:21:32.570Z,76.0861
2023-04-30T08:22:33.193Z,76.3793
2023-04-30T08:23:33.846Z,76.6508
2023-04-30T08:24:34.485Z,76.7575
2023-04-30T08:25:35.237Z,76.9927
2023-04-30T08:26:35.550Z,75.9416
2023-04-30T08:27:36.172Z,76.1703
2023-04-30T08:28:36.868Z,75.4958
2023-04-30T08:29:37.251Z,75.3832
2023-04-30T08:30:37.955Z,75.0796
2023-04-30T08:31:38.668Z,75.7955
2023-04-30T08:32:39.843Z,75.7533
2023-04-30T08:33:39.925Z,75.1936
2023-04-30T08:34:40.445Z,75.8561
2023-04-30T08:35:40.545Z,76.1857
2023-04-30T08:36:41.016Z,75.6660
2023-04-30T08:37:41.682Z,75.9112
2023-04-30T08:38:42.373Z,75.2756
2023-04-30T08:39:42.783Z,75.1965
2023-04-30T08:40:51.428Z,75.6647
2023-04-30T08:41:44.574Z,75.8433
2023-04-30T08:42:45.165Z,76.5020
2023-04-30T08:43:46.387Z,75.6357
2023-04-30T08:44:47.491Z,75.5636
2023-04-30T08:45:48.297Z,75.2492
2023-04-30T08:46:48.865Z,75.4254
2023-04-30T08:47:49.118Z,75.6643
2023-04-30T08:49:50.040Z,75.4346
2023-04-30T08:50:50.728Z,75.1321
2023-04-30T08:51:51.391Z,74.9145
2023-04-30T08:52:52.168Z,74.1755
2023-04-30T08:53:53.101Z,75.6023
2023-04-30T08:54:53.606Z,75.2726
2023-04-30T08:55:54.281Z,75.3231
2023-04-30T08:56:54.856Z,76.0270
2023-04-30T08:57:55.254Z,75.9947
2023-04-30T08:58:56.085Z,75.4187
2023-04-30T08:59:56.751Z,75.1634
2023-04-30T09:00:56.958Z,75.3604
2023-04-30T09:01:58.066Z,75.6479
2023-04-30T09:02:59.182Z,75.3835
2023-04-30T09:03:59.588Z,76.4124
2023-04-30T09:05:00.844Z,76.1408
2023-04-30T09:06:01.411Z,74.8567
2023-04-30T09:07:04.453Z,75.4979
2023-04-30T09:08:06.417Z,75.5652
2023-04-30T09:09:07.338Z,75.2975
2023-04-30T09:10:07.836Z,75.2887
2023-04-30T09:11:08.624Z,75.4919
2023-04-30T09:12:09.003Z,76.3776
2023-04-30T09:13:09.649Z,75.3223
2023-04-30T09:14:10.551Z,76.2384
2023-04-30T09:15:11.161Z,75.5800
2023-04-30T09:16:11.856Z,74.9771
2023-04-30T09:17:11.853Z,75.0046
2023-04-30T09:18:12.661Z,75.7149
2023-04-30T09:20:12.982Z,75.3560
2023-04-30T09:21:13.668Z,74.8891
2023-04-30T09:22:14.547Z,75.5403
2023-04-30T09:23:15.036Z,75.4827
2023-04-30T09:24:18.623Z,74.9703
2023-04-30T09:25:37.731Z,74.6294
2023-04-30T09:26:17.031Z,74.6076
2023-04-30T09:27:18.141Z,74.9522
2023-04-30T09:28:19.657Z,74.9164
2023-04-30T09:29:24.884Z,75.2555
2023-04-30T09:30:20.308Z,75.0923
2023-04-30T09:31:21.599Z,73.9246
2023-04-30T09:32:22.246Z,73.8512
2023-04-30T09:33:22.399Z,74.3048
2023-04-30T09:34:23.285Z,74.1353
2023-04-30T09:35:25.003Z,74.0466
2023-04-30T09:36:25.702Z,73.8897
2023-04-30T09:37:27.151Z,73.4824
2023-04-30T09:39:28.076Z,73.7984
2023-04-30T09:40:28.264Z,73.9266
2023-04-30T09:41:28.661Z,73.0571
2023-04-30T09:42:29.287Z,73.6002
2023-04-30T09:43:30.262Z,73.9146
2023-04-30T09:44:30.674Z,73.0444
2023-04-30T09:45:32.705Z,73.1793
2023-04-30T09:46:32.487Z,71.5634
2023-04-30T09:47:33.390Z,73.3341
2023-04-30T09:50:35.006Z,72.0388
2023-04-30T09:51:35.570Z,71.7548
2023-04-30T09:52:36.507Z,71.6291
2023-04-30T09:53:37.134Z,71.1076
2023-04-30T09:54:37.965Z,70.5733
2023-04-30T09:55:37.926Z,71.6829
2023-04-30T09:56:38.010Z,71.3168
2023-04-30T09:57:38.084Z,71.2739
2023-04-30T09:58:39.444Z,71.5223
2023-04-30T09:59:39.027Z,71.5261
2023-04-30T10:00:40.154Z,71.6562
2023-04-30T10:01:41.641Z,71.5579
2023-04-30T10:02:43.014Z,71.1068
2023-04-30T10:04:43.007Z,70.7804
2023-04-30T10:05:44.337Z,71.5804
2023-04-30T10:06:58.876Z,71.0628
2023-04-30T10:07:59.117Z,71.4243
2023-04-30T10:09:00.707Z,70.7320
2023-04-30T10:10:00.837Z,70.6001
2023-04-30T10:11:01.502Z,70.3066
2023-04-30T10:12:01.966Z,70.4411
2023-04-30T10:13:02.708Z,71.0545
2023-04-30T10:14:03.020Z,69.9783
2023-04-30T10:15:03.886Z,69.9360
2023-04-30T10:16:04.503Z,69.1716
2023-04-30T10:17:05.241Z,69.4118
2023-04-30T10:18:06.333Z,69.3027
2023-04-30T10:19:07.266Z,69.0561
2023-04-30T10:20:08.512Z,69.2346
2023-04-30T10:21:09.301Z,68.8253
2023-04-30T10:22:09.885Z,68.4539
2023-04-30T10:23:10.244Z,68.2060
2023-04-30T10:24:10.940Z,67.8564
2023-04-30T10:25:11.690Z,67.2690
2023-04-30T10:26:12.233Z,67.0755
2023-04-30T10:27:13.833Z,65.9056
2023-04-30T10:28:13.429Z,66.1084
2023-04-30T10:29:14.621Z,65.6487
2023-04-30T10:30:15.165Z,65.7331
2023-04-30T10:31:15.653Z,64.0029
2023-04-30T10:32:16.821Z,64.6542
2023-04-30T10:33:18.700Z,64.1659
2023-04-30T10:34:18.707Z,65.6018
2023-04-30T10:35:19.089Z,65.5601
2023-04-30T10:36:19.751Z,65.3156
2023-04-30T10:37:20.179Z,66.4312
2023-04-30T10:38:20.701Z,64.5671
2023-04-30T10:39:37.153Z,64.7773
2023-04-30T10:40:37.263Z,65.1088
2023-04-30T10:41:37.770Z,63.9852
2023-04-30T10:42:38.425Z,63.1185
2023-04-30T10:43:40.196Z,64.7222
2023-04-30T10:44:39.162Z,64.4709
2023-04-30T10:45:40.401Z,64.3356
2023-04-30T10:46:41.721Z,63.8219
2023-04-30T10:47:42.122Z,64.1600
2023-04-30T10:48:43.114Z,63.4346
2023-04-30T10:49:43.750Z,64.1792
2023-04-30T10:50:46.173Z,62.5470
2023-04-30T10:51:45.702Z,62.1783
2023-04-30T10:53:01.867Z,63.1042
2023-04-30T10:53:47.796Z,63.1307
2023-04-30T10:54:48.506Z,63.1931
2023-04-30T10:55:49.794Z,62.0609
2023-04-30T10:56:48.714Z,63.5740
2023-04-30T10:57:49.384Z,63.4324
2023-04-30T10:58:50.039Z,62.4704
2023-04-30T10:59:50.468Z,61.9927
2023-04-30T11:00:51.648Z,62.5537
2023-04-30T11:01:52.698Z,62.0260
2023-04-30T11:02:53.740Z,62.5580
2023-04-30T11:03:54.595Z,62.1275
2023-04-30T11:04:55.594Z,61.4308
2023-04-30T11:05:56.422Z,61.3513
2023-04-30T11:06:57.527Z,61.8021
2023-04-30T11:07:58.188Z,62.6291
2023-04-30T11:08:59.188Z,62.4302
2023-04-30T11:09:59.458Z,62.7925
2023-04-30T11:11:00.159Z,62.8968
2023-04-30T11:12:01.126Z,62.1804
2023-04-30T11:13:03.651Z,63.1030
2023-04-30T11:14:04.101Z,61.0035
2023-04-30T11:15:04.810Z,60.9347
2023-04-30T11:16:05.155Z,60.6684
2023-04-30T11:17:05.411Z,62.2000
2023-04-30T11:18:05.799Z,61.6142
2023-04-30T11:19:06.195Z,61.1678
2023-04-30T11:20:06.995Z,61.8468
2023-04-30T11:21:07.429Z,59.8182
2023-04-30T11:22:08.063Z,60.2661
2023-04-30T11:23:08.725Z,59.9247
2023-04-30T11:24:10.239Z,60.0708
2023-04-30T11:25:11.025Z,59.5449
2023-04-30T11:26:11.941Z,59.0932
2023-04-30T11:27:12.876Z,59.0056
2023-04-30T11:28:14.265Z,59.8327
2023-04-30T11:29:15.554Z,60.1767
2023-04-30T11:30:15.364Z,60.1704
2023-04-30T11:31:15.757Z,60.1889
2023-04-30T11:32:16.103Z,58.8306
2023-04-30T11:33:17.179Z,58.5229
2023-04-30T11:34:17.871Z,60.2681
2023-04-30T11:35:18.750Z,59.9760
2023-04-30T11:36:19.245Z,58.4883
2023-04-30T11:37:20.498Z,58.0250
2023-04-30T11:38:21.530Z,58.1725
2023-04-30T11:39:22.541Z,58.5217
2023-04-30T11:40:23.506Z,58.3806
2023-04-30T11:41:24.054Z,58.4555
2023-04-30T11:42:24.784Z,57.3168
2023-04-30T11:43:25.671Z,57.4941
2023-04-30T11:44:26.152Z,58.2356
2023-04-30T11:45:26.832Z,57.5304
2023-04-30T11:46:27.462Z,57.3840
2023-04-30T11:47:28.322Z,57.7489
2023-04-30T11:48:30.146Z,57.9142
2023-04-30T11:49:29.511Z,58.1778
2023-04-30T11:50:29.896Z,58.2835
2023-04-30T11:51:30.230Z,58.8786
2023-04-30T11:52:30.636Z,59.1557
2023-04-30T11:53:31.404Z,59.8686
2023-04-30T11:54:31.924Z,58.8811
2023-04-30T11:55:32.686Z,58.5125
2023-04-30T11:56:33.780Z,58.6455
2023-04-30T11:57:34.309Z,57.6561
2023-04-30T11:58:35.028Z,57.2748
2023-04-30T11:59:35.741Z,57.6185
2023-04-30T12:00:36.573Z,58.6643
2023-04-30T12:01:37.280Z,58.2566
2023-04-30T12:02:38.371Z,59.2938
2023-04-30T12:03:39.436Z,59.9749
2023-04-30T12:04:40.802Z,59.2104
2023-04-30T12:05:41.363Z,59.6451
2023-04-30T12:06:42.218Z,59.4745
2023-04-30T12:07:42.732Z,59.4432
2023-04-30T12:08:43.445Z,59.0361
2023-04-30T12:09:44.222Z,59.0928
2023-04-30T12:10:45.206Z,60.0959
2023-04-30T12:11:45.835Z,59.3684
2023-04-30T12:12:46.752Z,60.6112
2023-04-30T12:13:47.338Z,59.3088
2023-04-30T12:14:47.990Z,59.5783
2023-04-30T12:15:49.473Z,60.3351
2023-04-30T12:16:50.479Z,59.8043
2023-04-30T12:18:52.663Z,59.1408
2023-04-30T12:19:51.714Z,58.4471
2023-04-30T12:20:52.413Z,58.8373
2023-04-30T12:21:52.502Z,58.1863
2023-04-30T12:22:53.426Z,58.3981
2023-04-30T12:23:54.593Z,58.5612
2023-04-30T12:24:55.018Z,59.0806
2023-04-30T12:25:55.541Z,58.5411
2023-04-30T12:26:55.812Z,59.9701
2023-04-30T12:27:57.030Z,59.8509
2023-04-30T12:28:58.116Z,59.4890
2023-04-30T12:29:58.969Z,59.2342
2023-04-30T12:31:00.160Z,57.9365
2023-04-30T12:32:00.214Z,58.4733
2023-04-30T12:33:00.649Z,58.3987
2023-04-30T12:34:02.047Z,59.2248
2023-04-30T12:36:02.141Z,59.6805
2023-04-30T12:37:02.992Z,60.5156
2023-04-30T12:38:03.453Z,60.4791
2023-04-30T12:39:04.407Z,60.1314
2023-04-30T12:40:04.573Z,60.4618
2023-04-30T12:41:16.326Z,60.0921
2023-04-30T12:42:16.737Z,59.6054
2023-04-30T12:43:17.450Z,60.2642
2023-04-30T12:44:17.862Z,60.4385
2023-04-30T12:45:18.357Z,60.6073
2023-04-30T12:46:19.268Z,59.7367
2023-04-30T12:47:19.887Z,60.3438
2023-04-30T12:48:20.165Z,60.8878
2023-04-30T12:49:20.734Z,60.5504
2023-04-30T12:50:21.504Z,60.8644
2023-04-30T12:51:22.174Z,61.6871